sensor_id;sensor_type;location;lat;lon;timestamp;P1;durP1;ratioP1;P2;durP2;ratioP2
62584;SDS011;48643;51.670;5.808;2024-03-23T00:53:50;8.02;;;3.28;;
62584;SDS011;48643;51.670;5.808;2024-03-23T00:56:16;9.35;;;3.03;;
62584;SDS011;48643;51.670;5.808;2024-03-23T00:58:42;7.90;;;3.20;;
62584;SDS011;48643;51.670;5.808;2024-03-23T01:01:08;7.60;;;2.83;;
62584;SDS011;48643;51.670;5.808;2024-03-23T01:03:34;8.82;;;2.85;;
62584;SDS011;48643;51.670;5.808;2024-03-23T01:06:00;9.63;;;3.00;;
62584;SDS011;48643;51.670;5.808;2024-03-23T01:08:27;9.05;;;3.30;;
62584;SDS011;48643;51.670;5.808;2024-03-23T01:10:54;7.25;;;2.83;;
62584;SDS011;48643;51.670;5.808;2024-03-23T01:13:24;7.45;;;2.90;;
62584;SDS011;48643;51.670;5.808;2024-03-23T01:15:53;6.70;;;2.95;;
62584;SDS011;48643;51.670;5.808;2024-03-23T01:18:20;7.82;;;3.03;;
62584;SDS011;48643;51.670;5.808;2024-03-23T01:20:47;9.07;;;2.95;;
62584;SDS011;48643;51.670;5.808;2024-03-23T01:23:13;5.85;;;2.78;;
62584;SDS011;48643;51.670;5.808;2024-03-23T01:25:39;5.97;;;2.70;;
62584;SDS011;48643;51.670;5.808;2024-03-23T01:28:05;8.45;;;3.03;;
62584;SDS011;48643;51.670;5.808;2024-03-23T01:30:34;8.43;;;3.08;;
62584;SDS011;48643;51.670;5.808;2024-03-23T01:33:01;11.18;;;3.00;;
62584;SDS011;48643;51.670;5.808;2024-03-23T01:35:30;8.02;;;2.85;;
62584;SDS011;48643;51.670;5.808;2024-03-23T01:37:56;7.07;;;2.90;;
62584;SDS011;48643;51.670;5.808;2024-03-23T01:40:22;9.35;;;2.83;;
62584;SDS011;48643;51.670;5.808;2024-03-23T01:42:57;9.85;;;3.20;;
62584;SDS011;48643;51.670;5.808;2024-03-23T01:45:24;6.93;;;2.90;;
62584;SDS011;48643;51.670;5.808;2024-03-23T01:47:51;6.47;;;3.05;;
62584;SDS011;48643;51.670;5.808;2024-03-23T01:50:18;7.80;;;2.92;;
62584;SDS011;48643;51.670;5.808;2024-03-23T01:52:47;8.88;;;3.38;;
62584;SDS011;48643;51.670;5.808;2024-03-23T01:55:13;8.27;;;3.40;;
62584;SDS011;48643;51.670;5.808;2024-03-23T01:57:39;8.93;;;3.03;;
62584;SDS011;48643;51.670;5.808;2024-03-23T02:00:06;7.97;;;3.00;;
62584;SDS011;48643;51.670;5.808;2024-03-23T02:02:42;10.18;;;3.38;;
62584;SDS011;48643;51.670;5.808;2024-03-23T02:05:11;8.40;;;3.60;;
62584;SDS011;48643;51.670;5.808;2024-03-23T02:07:38;9.82;;;3.38;;
62584;SDS011;48643;51.670;5.808;2024-03-23T02:10:08;7.10;;;3.25;;
62584;SDS011;48643;51.670;5.808;2024-03-23T02:12:40;13.15;;;3.85;;
62584;SDS011;48643;51.670;5.808;2024-03-23T02:15:07;8.93;;;3.13;;
62584;SDS011;48643;51.670;5.808;2024-03-23T02:17:34;8.80;;;3.20;;
62584;SDS011;48643;51.670;5.808;2024-03-23T02:20:01;9.55;;;3.30;;
62584;SDS011;48643;51.670;5.808;2024-03-23T02:22:37;8.00;;;3.42;;
62584;SDS011;48643;51.670;5.808;2024-03-23T02:25:06;8.93;;;3.13;;
62584;SDS011;48643;51.670;5.808;2024-03-23T02:27:32;8.00;;;3.10;;
62584;SDS011;48643;51.670;5.808;2024-03-23T02:30:01;11.02;;;3.30;;
62584;SDS011;48643;51.670;5.808;2024-03-23T02:32:27;6.60;;;2.90;;
62584;SDS011;48643;51.670;5.808;2024-03-23T02:34:53;11.25;;;3.35;;
62584;SDS011;48643;51.670;5.808;2024-03-23T02:37:19;11.18;;;3.15;;
62584;SDS011;48643;51.670;5.808;2024-03-23T02:39:44;13.15;;;3.15;;
62584;SDS011;48643;51.670;5.808;2024-03-23T02:42:10;8.10;;;3.28;;
62584;SDS011;48643;51.670;5.808;2024-03-23T02:44:36;10.80;;;3.30;;
62584;SDS011;48643;51.670;5.808;2024-03-23T02:47:02;6.40;;;3.00;;
62584;SDS011;48643;51.670;5.808;2024-03-23T02:49:28;8.80;;;2.97;;
62584;SDS011;48643;51.670;5.808;2024-03-23T02:51:54;7.65;;;2.70;;
62584;SDS011;48643;51.670;5.808;2024-03-23T02:54:19;8.25;;;2.70;;
62584;SDS011;48643;51.670;5.808;2024-03-23T02:56:45;9.90;;;3.33;;
62584;SDS011;48643;51.670;5.808;2024-03-23T02:59:11;9.48;;;2.90;;
62584;SDS011;48643;51.670;5.808;2024-03-23T03:01:37;10.10;;;3.05;;
62584;SDS011;48643;51.670;5.808;2024-03-23T03:04:03;10.40;;;2.97;;
62584;SDS011;48643;51.670;5.808;2024-03-23T03:06:30;9.07;;;2.83;;
62584;SDS011;48643;51.670;5.808;2024-03-23T03:08:56;9.18;;;2.92;;
62584;SDS011;48643;51.670;5.808;2024-03-23T03:11:23;7.68;;;2.97;;
62584;SDS011;48643;51.670;5.808;2024-03-23T03:13:49;9.23;;;2.88;;
62584;SDS011;48643;51.670;5.808;2024-03-23T03:16:14;10.73;;;3.00;;
62584;SDS011;48643;51.670;5.808;2024-03-23T03:18:40;8.45;;;2.80;;
62584;SDS011;48643;51.670;5.808;2024-03-23T03:21:07;8.63;;;3.22;;
62584;SDS011;48643;51.670;5.808;2024-03-23T03:23:39;7.70;;;2.53;;
62584;SDS011;48643;51.670;5.808;2024-03-23T03:26:05;12.50;;;2.90;;
62584;SDS011;48643;51.670;5.808;2024-03-23T03:28:31;11.25;;;2.97;;
62584;SDS011;48643;51.670;5.808;2024-03-23T03:30:58;10.48;;;3.03;;
62584;SDS011;48643;51.670;5.808;2024-03-23T03:33:25;9.73;;;2.97;;
62584;SDS011;48643;51.670;5.808;2024-03-23T03:35:51;12.05;;;2.97;;
62584;SDS011;48643;51.670;5.808;2024-03-23T03:38:18;10.65;;;3.20;;
62584;SDS011;48643;51.670;5.808;2024-03-23T03:40:44;10.38;;;2.97;;
62584;SDS011;48643;51.670;5.808;2024-03-23T03:43:10;10.52;;;3.03;;
62584;SDS011;48643;51.670;5.808;2024-03-23T03:45:36;8.63;;;2.92;;
62584;SDS011;48643;51.670;5.808;2024-03-23T03:48:02;8.20;;;2.70;;
62584;SDS011;48643;51.670;5.808;2024-03-23T03:50:28;8.18;;;3.00;;
62584;SDS011;48643;51.670;5.808;2024-03-23T03:52:54;12.18;;;3.10;;
62584;SDS011;48643;51.670;5.808;2024-03-23T03:55:20;7.70;;;2.90;;
62584;SDS011;48643;51.670;5.808;2024-03-23T03:57:45;7.80;;;3.25;;
62584;SDS011;48643;51.670;5.808;2024-03-23T04:00:11;8.70;;;3.08;;
62584;SDS011;48643;51.670;5.808;2024-03-23T04:02:38;8.68;;;3.13;;
62584;SDS011;48643;51.670;5.808;2024-03-23T04:05:04;8.32;;;2.90;;
62584;SDS011;48643;51.670;5.808;2024-03-23T04:07:30;10.80;;;2.90;;
62584;SDS011;48643;51.670;5.808;2024-03-23T04:09:56;8.13;;;2.90;;
62584;SDS011;48643;51.670;5.808;2024-03-23T04:12:23;11.60;;;3.10;;
62584;SDS011;48643;51.670;5.808;2024-03-23T04:14:49;13.60;;;3.30;;
62584;SDS011;48643;51.670;5.808;2024-03-23T04:17:15;11.52;;;3.00;;
62584;SDS011;48643;51.670;5.808;2024-03-23T04:19:41;8.10;;;2.80;;
62584;SDS011;48643;51.670;5.808;2024-03-23T04:22:07;10.80;;;3.30;;
62584;SDS011;48643;51.670;5.808;2024-03-23T04:24:33;10.52;;;3.20;;
62584;SDS011;48643;51.670;5.808;2024-03-23T04:26:59;7.00;;;2.85;;
62584;SDS011;48643;51.670;5.808;2024-03-23T04:29:25;12.32;;;3.35;;
62584;SDS011;48643;51.670;5.808;2024-03-23T04:31:52;8.63;;;2.67;;
62584;SDS011;48643;51.670;5.808;2024-03-23T04:34:18;9.68;;;2.90;;
62584;SDS011;48643;51.670;5.808;2024-03-23T04:36:44;12.80;;;3.42;;
62584;SDS011;48643;51.670;5.808;2024-03-23T04:39:10;9.63;;;3.20;;
62584;SDS011;48643;51.670;5.808;2024-03-23T04:41:36;10.77;;;3.10;;
62584;SDS011;48643;51.670;5.808;2024-03-23T04:44:01;10.55;;;3.25;;
62584;SDS011;48643;51.670;5.808;2024-03-23T04:46:27;6.95;;;2.70;;
62584;SDS011;48643;51.670;5.808;2024-03-23T04:48:53;11.43;;;3.20;;
62584;SDS011;48643;51.670;5.808;2024-03-23T04:51:23;8.05;;;2.95;;
62584;SDS011;48643;51.670;5.808;2024-03-23T04:56:15;10.68;;;3.20;;
62584;SDS011;48643;51.670;5.808;2024-03-23T04:58:42;9.15;;;2.95;;
62584;SDS011;48643;51.670;5.808;2024-03-23T05:01:08;11.13;;;3.20;;
62584;SDS011;48643;51.670;5.808;2024-03-23T05:03:36;11.80;;;3.05;;
62584;SDS011;48643;51.670;5.808;2024-03-23T05:06:02;7.45;;;3.20;;
62584;SDS011;48643;51.670;5.808;2024-03-23T05:08:28;10.20;;;2.88;;
62584;SDS011;48643;51.670;5.808;2024-03-23T05:10:54;8.32;;;2.78;;
62584;SDS011;48643;51.670;5.808;2024-03-23T05:13:20;15.48;;;2.92;;
62584;SDS011;48643;51.670;5.808;2024-03-23T05:15:53;7.22;;;2.90;;
62584;SDS011;48643;51.670;5.808;2024-03-23T05:18:19;16.17;;;3.38;;
62584;SDS011;48643;51.670;5.808;2024-03-23T05:20:45;11.07;;;2.75;;
62584;SDS011;48643;51.670;5.808;2024-03-23T05:23:11;11.40;;;3.03;;
62584;SDS011;48643;51.670;5.808;2024-03-23T05:25:37;9.27;;;2.70;;
62584;SDS011;48643;51.670;5.808;2024-03-23T05:28:03;11.32;;;2.63;;
62584;SDS011;48643;51.670;5.808;2024-03-23T05:30:29;9.90;;;2.65;;
62584;SDS011;48643;51.670;5.808;2024-03-23T05:32:55;11.07;;;3.00;;
62584;SDS011;48643;51.670;5.808;2024-03-23T05:35:21;7.40;;;2.80;;
62584;SDS011;48643;51.670;5.808;2024-03-23T05:37:47;9.23;;;2.72;;
62584;SDS011;48643;51.670;5.808;2024-03-23T05:40:12;8.85;;;2.65;;
62584;SDS011;48643;51.670;5.808;2024-03-23T05:42:41;7.43;;;2.60;;
62584;SDS011;48643;51.670;5.808;2024-03-23T05:45:07;8.18;;;2.50;;
62584;SDS011;48643;51.670;5.808;2024-03-23T05:47:33;8.98;;;3.17;;
62584;SDS011;48643;51.670;5.808;2024-03-23T05:49:59;8.85;;;2.85;;
62584;SDS011;48643;51.670;5.808;2024-03-23T05:52:26;5.80;;;2.55;;
62584;SDS011;48643;51.670;5.808;2024-03-23T05:54:52;10.88;;;3.15;;
62584;SDS011;48643;51.670;5.808;2024-03-23T05:57:18;10.13;;;3.00;;
62584;SDS011;48643;51.670;5.808;2024-03-23T05:59:44;11.10;;;2.70;;
62584;SDS011;48643;51.670;5.808;2024-03-23T06:02:10;11.68;;;3.00;;
62584;SDS011;48643;51.670;5.808;2024-03-23T06:04:36;10.07;;;2.40;;
62584;SDS011;48643;51.670;5.808;2024-03-23T06:07:03;9.77;;;2.95;;
62584;SDS011;48643;51.670;5.808;2024-03-23T06:09:31;10.07;;;2.80;;
62584;SDS011;48643;51.670;5.808;2024-03-23T06:11:57;11.85;;;2.70;;
62584;SDS011;48643;51.670;5.808;2024-03-23T06:14:23;9.80;;;2.90;;
62584;SDS011;48643;51.670;5.808;2024-03-23T06:16:49;10.32;;;2.92;;
62584;SDS011;48643;51.670;5.808;2024-03-23T06:19:15;11.52;;;3.13;;
62584;SDS011;48643;51.670;5.808;2024-03-23T06:21:44;10.77;;;2.97;;
62584;SDS011;48643;51.670;5.808;2024-03-23T06:24:11;12.35;;;3.55;;
62584;SDS011;48643;51.670;5.808;2024-03-23T06:26:37;12.98;;;3.42;;
62584;SDS011;48643;51.670;5.808;2024-03-23T06:29:03;8.35;;;2.90;;
62584;SDS011;48643;51.670;5.808;2024-03-23T06:31:30;11.73;;;3.10;;
62584;SDS011;48643;51.670;5.808;2024-03-23T06:33:56;9.82;;;3.22;;
62584;SDS011;48643;51.670;5.808;2024-03-23T06:36:22;12.50;;;3.42;;
62584;SDS011;48643;51.670;5.808;2024-03-23T06:38:48;8.93;;;2.92;;
62584;SDS011;48643;51.670;5.808;2024-03-23T06:41:14;8.75;;;3.20;;
62584;SDS011;48643;51.670;5.808;2024-03-23T06:43:40;10.57;;;3.50;;
62584;SDS011;48643;51.670;5.808;2024-03-23T06:46:06;11.10;;;3.17;;
62584;SDS011;48643;51.670;5.808;2024-03-23T06:48:32;10.15;;;3.40;;
62584;SDS011;48643;51.670;5.808;2024-03-23T06:50:58;11.45;;;3.10;;
62584;SDS011;48643;51.670;5.808;2024-03-23T06:53:24;10.90;;;3.30;;
62584;SDS011;48643;51.670;5.808;2024-03-23T06:55:51;8.38;;;3.30;;
62584;SDS011;48643;51.670;5.808;2024-03-23T06:58:18;10.60;;;3.38;;
62584;SDS011;48643;51.670;5.808;2024-03-23T07:00:49;9.95;;;3.58;;
62584;SDS011;48643;51.670;5.808;2024-03-23T07:03:16;9.45;;;3.13;;
62584;SDS011;48643;51.670;5.808;2024-03-23T07:05:42;9.63;;;3.15;;
62584;SDS011;48643;51.670;5.808;2024-03-23T07:08:08;12.00;;;3.38;;
62584;SDS011;48643;51.670;5.808;2024-03-23T07:10:34;14.63;;;4.53;;
62584;SDS011;48643;51.670;5.808;2024-03-23T07:13:01;12.05;;;4.03;;
62584;SDS011;48643;51.670;5.808;2024-03-23T07:15:26;12.63;;;3.75;;
62584;SDS011;48643;51.670;5.808;2024-03-23T07:17:52;12.40;;;3.92;;
62584;SDS011;48643;51.670;5.808;2024-03-23T07:20:18;14.45;;;4.43;;
62584;SDS011;48643;51.670;5.808;2024-03-23T07:22:45;8.93;;;3.67;;
62584;SDS011;48643;51.670;5.808;2024-03-23T07:25:12;17.25;;;4.20;;
62584;SDS011;48643;51.670;5.808;2024-03-23T07:27:38;13.65;;;3.65;;
62584;SDS011;48643;51.670;5.808;2024-03-23T07:30:05;15.43;;;3.53;;
62584;SDS011;48643;51.670;5.808;2024-03-23T07:32:31;17.73;;;3.72;;
62584;SDS011;48643;51.670;5.808;2024-03-23T07:34:57;11.32;;;3.60;;
62584;SDS011;48643;51.670;5.808;2024-03-23T07:37:23;11.45;;;3.20;;
62584;SDS011;48643;51.670;5.808;2024-03-23T07:39:49;14.77;;;4.15;;
62584;SDS011;48643;51.670;5.808;2024-03-23T07:42:15;14.57;;;3.78;;
62584;SDS011;48643;51.670;5.808;2024-03-23T07:44:41;12.32;;;3.47;;
62584;SDS011;48643;51.670;5.808;2024-03-23T07:47:06;12.85;;;3.42;;
62584;SDS011;48643;51.670;5.808;2024-03-23T07:49:32;10.60;;;3.30;;
62584;SDS011;48643;51.670;5.808;2024-03-23T07:51:58;13.65;;;3.10;;
62584;SDS011;48643;51.670;5.808;2024-03-23T07:54:24;13.35;;;3.60;;
62584;SDS011;48643;51.670;5.808;2024-03-23T07:56:50;7.68;;;2.75;;
62584;SDS011;48643;51.670;5.808;2024-03-23T07:59:16;8.32;;;2.72;;
62584;SDS011;48643;51.670;5.808;2024-03-23T08:01:41;9.57;;;3.20;;
62584;SDS011;48643;51.670;5.808;2024-03-23T08:04:07;12.27;;;3.03;;
62584;SDS011;48643;51.670;5.808;2024-03-23T08:06:33;8.35;;;2.78;;
62584;SDS011;48643;51.670;5.808;2024-03-23T08:08:59;11.52;;;2.90;;
62584;SDS011;48643;51.670;5.808;2024-03-23T08:11:28;10.02;;;2.70;;
62584;SDS011;48643;51.670;5.808;2024-03-23T08:13:56;10.27;;;2.63;;
62584;SDS011;48643;51.670;5.808;2024-03-23T08:16:23;7.97;;;2.78;;
62584;SDS011;48643;51.670;5.808;2024-03-23T08:18:52;9.85;;;2.60;;
62584;SDS011;48643;51.670;5.808;2024-03-23T08:21:18;8.80;;;2.28;;
62584;SDS011;48643;51.670;5.808;2024-03-23T08:23:44;12.15;;;2.70;;
62584;SDS011;48643;51.670;5.808;2024-03-23T08:26:14;9.85;;;2.65;;
62584;SDS011;48643;51.670;5.808;2024-03-23T08:28:41;10.13;;;2.70;;
62584;SDS011;48643;51.670;5.808;2024-03-23T08:31:07;13.55;;;2.63;;
62584;SDS011;48643;51.670;5.808;2024-03-23T08:33:34;12.85;;;2.70;;
62584;SDS011;48643;51.670;5.808;2024-03-23T08:36:01;13.73;;;2.92;;
62584;SDS011;48643;51.670;5.808;2024-03-23T08:38:28;16.90;;;2.67;;
62584;SDS011;48643;51.670;5.808;2024-03-23T08:41:01;11.02;;;3.10;;
62584;SDS011;48643;51.670;5.808;2024-03-23T08:43:32;18.13;;;3.40;;
62584;SDS011;48643;51.670;5.808;2024-03-23T08:48:41;7.45;;;2.58;;
62584;SDS011;48643;51.670;5.808;2024-03-23T08:51:11;13.65;;;3.03;;
62584;SDS011;48643;51.670;5.808;2024-03-23T08:53:38;12.20;;;3.00;;
62584;SDS011;48643;51.670;5.808;2024-03-23T08:56:05;12.65;;;2.65;;
62584;SDS011;48643;51.670;5.808;2024-03-23T08:58:32;9.30;;;2.70;;
62584;SDS011;48643;51.670;5.808;2024-03-23T09:01:08;14.10;;;3.17;;
62584;SDS011;48643;51.670;5.808;2024-03-23T09:03:37;15.45;;;2.95;;
62584;SDS011;48643;51.670;5.808;2024-03-23T09:06:21;11.15;;;2.78;;
62584;SDS011;48643;51.670;5.808;2024-03-23T09:08:47;9.45;;;2.53;;
62584;SDS011;48643;51.670;5.808;2024-03-23T09:11:13;9.05;;;2.58;;
62584;SDS011;48643;51.670;5.808;2024-03-23T09:13:39;9.65;;;2.33;;
62584;SDS011;48643;51.670;5.808;2024-03-23T09:16:07;9.50;;;2.22;;
62584;SDS011;48643;51.670;5.808;2024-03-23T09:18:35;14.35;;;2.60;;
62584;SDS011;48643;51.670;5.808;2024-03-23T09:21:04;13.77;;;2.67;;
62584;SDS011;48643;51.670;5.808;2024-03-23T09:23:37;13.90;;;2.70;;
62584;SDS011;48643;51.670;5.808;2024-03-23T09:26:03;24.75;;;2.95;;
62584;SDS011;48643;51.670;5.808;2024-03-23T09:28:29;18.48;;;2.70;;
62584;SDS011;48643;51.670;5.808;2024-03-23T09:31:01;11.68;;;2.50;;
62584;SDS011;48643;51.670;5.808;2024-03-23T09:33:30;10.05;;;2.40;;
62584;SDS011;48643;51.670;5.808;2024-03-23T09:35:57;12.35;;;2.42;;
62584;SDS011;48643;51.670;5.808;2024-03-23T09:38:23;11.18;;;2.50;;
62584;SDS011;48643;51.670;5.808;2024-03-23T09:40:52;8.90;;;2.25;;
62584;SDS011;48643;51.670;5.808;2024-03-23T09:43:19;12.75;;;2.30;;
62584;SDS011;48643;51.670;5.808;2024-03-23T09:45:45;7.70;;;2.10;;
62584;SDS011;48643;51.670;5.808;2024-03-23T09:48:12;9.73;;;2.20;;
62584;SDS011;48643;51.670;5.808;2024-03-23T09:50:39;7.70;;;2.08;;
62584;SDS011;48643;51.670;5.808;2024-03-23T09:53:08;10.45;;;2.40;;
62584;SDS011;48643;51.670;5.808;2024-03-23T09:55:37;9.57;;;2.13;;
62584;SDS011;48643;51.670;5.808;2024-03-23T09:58:03;11.30;;;2.50;;
62584;SDS011;48643;51.670;5.808;2024-03-23T10:00:36;12.80;;;2.10;;
62584;SDS011;48643;51.670;5.808;2024-03-23T10:03:03;6.85;;;2.33;;
62584;SDS011;48643;51.670;5.808;2024-03-23T10:05:32;13.25;;;2.75;;
62584;SDS011;48643;51.670;5.808;2024-03-23T10:10:41;11.38;;;2.40;;
62584;SDS011;48643;51.670;5.808;2024-03-23T10:13:07;10.88;;;2.30;;
62584;SDS011;48643;51.670;5.808;2024-03-23T10:15:36;12.40;;;2.20;;
62584;SDS011;48643;51.670;5.808;2024-03-23T10:21:29;10.85;;;2.35;;
62584;SDS011;48643;51.670;5.808;2024-03-23T10:23:30;11.65;;;2.85;;
62584;SDS011;48643;51.670;5.808;2024-03-23T10:26:13;9.60;;;2.30;;
62584;SDS011;48643;51.670;5.808;2024-03-23T10:28:56;13.90;;;2.50;;
62584;SDS011;48643;51.670;5.808;2024-03-23T10:31:34;15.73;;;2.70;;
62584;SDS011;48643;51.670;5.808;2024-03-23T10:34:05;18.98;;;2.92;;
62584;SDS011;48643;51.670;5.808;2024-03-23T10:36:31;8.95;;;2.40;;
62584;SDS011;48643;51.670;5.808;2024-03-23T10:38:57;11.93;;;2.60;;
62584;SDS011;48643;51.670;5.808;2024-03-23T10:41:28;12.85;;;2.55;;
62584;SDS011;48643;51.670;5.808;2024-03-23T10:43:57;12.02;;;2.40;;
62584;SDS011;48643;51.670;5.808;2024-03-23T10:46:24;17.08;;;2.42;;
62584;SDS011;48643;51.670;5.808;2024-03-23T10:48:50;16.58;;;2.63;;
62584;SDS011;48643;51.670;5.808;2024-03-23T10:51:16;10.10;;;2.33;;
62584;SDS011;48643;51.670;5.808;2024-03-23T10:53:42;9.65;;;2.40;;
62584;SDS011;48643;51.670;5.808;2024-03-23T10:56:08;10.15;;;2.10;;
62584;SDS011;48643;51.670;5.808;2024-03-23T10:58:43;9.68;;;2.10;;
62584;SDS011;48643;51.670;5.808;2024-03-23T11:01:11;9.95;;;2.35;;
62584;SDS011;48643;51.670;5.808;2024-03-23T11:03:38;7.88;;;2.08;;
62584;SDS011;48643;51.670;5.808;2024-03-23T11:06:05;11.73;;;2.17;;
62584;SDS011;48643;51.670;5.808;2024-03-23T11:08:39;8.68;;;2.10;;
62584;SDS011;48643;51.670;5.808;2024-03-23T11:13:39;6.97;;;2.17;;
62584;SDS011;48643;51.670;5.808;2024-03-23T11:16:15;10.70;;;2.30;;
62584;SDS011;48643;51.670;5.808;2024-03-23T11:18:42;9.20;;;2.17;;
62584;SDS011;48643;51.670;5.808;2024-03-23T11:21:10;5.25;;;2.10;;
62584;SDS011;48643;51.670;5.808;2024-03-23T11:23:36;7.82;;;1.95;;
62584;SDS011;48643;51.670;5.808;2024-03-23T11:26:02;8.05;;;2.33;;
62584;SDS011;48643;51.670;5.808;2024-03-23T11:28:29;8.13;;;2.25;;
62584;SDS011;48643;51.670;5.808;2024-03-23T11:30:55;5.53;;;1.85;;
62584;SDS011;48643;51.670;5.808;2024-03-23T11:33:21;7.05;;;2.05;;
62584;SDS011;48643;51.670;5.808;2024-03-23T11:35:48;6.18;;;1.83;;
62584;SDS011;48643;51.670;5.808;2024-03-23T11:38:15;7.35;;;1.85;;
62584;SDS011;48643;51.670;5.808;2024-03-23T11:40:45;7.32;;;1.98;;
62584;SDS011;48643;51.670;5.808;2024-03-23T11:43:16;11.63;;;2.40;;
62584;SDS011;48643;51.670;5.808;2024-03-23T11:45:43;6.05;;;1.70;;
62584;SDS011;48643;51.670;5.808;2024-03-23T11:48:14;6.88;;;2.05;;
62584;SDS011;48643;51.670;5.808;2024-03-23T11:50:44;6.68;;;1.80;;
62584;SDS011;48643;51.670;5.808;2024-03-23T11:53:15;6.32;;;1.90;;
62584;SDS011;48643;51.670;5.808;2024-03-23T11:58:19;5.15;;;1.83;;
62584;SDS011;48643;51.670;5.808;2024-03-23T12:00:49;18.35;;;2.75;;
62584;SDS011;48643;51.670;5.808;2024-03-23T12:03:17;13.05;;;2.60;;
62584;SDS011;48643;51.670;5.808;2024-03-23T12:05:47;15.63;;;2.60;;
62584;SDS011;48643;51.670;5.808;2024-03-23T12:08:15;14.73;;;2.40;;
62584;SDS011;48643;51.670;5.808;2024-03-23T12:10:50;8.20;;;2.10;;
62584;SDS011;48643;51.670;5.808;2024-03-23T12:13:16;8.43;;;1.85;;
62584;SDS011;48643;51.670;5.808;2024-03-23T12:15:44;12.73;;;2.00;;
62584;SDS011;48643;51.670;5.808;2024-03-23T12:18:10;11.70;;;2.13;;
62584;SDS011;48643;51.670;5.808;2024-03-23T12:20:37;9.52;;;1.92;;
62584;SDS011;48643;51.670;5.808;2024-03-23T12:23:07;5.43;;;1.83;;
62584;SDS011;48643;51.670;5.808;2024-03-23T12:25:34;5.15;;;1.77;;
62584;SDS011;48643;51.670;5.808;2024-03-23T12:28:00;6.53;;;2.10;;
62584;SDS011;48643;51.670;5.808;2024-03-23T12:30:26;5.10;;;1.70;;
62584;SDS011;48643;51.670;5.808;2024-03-23T12:32:52;8.27;;;2.00;;
62584;SDS011;48643;51.670;5.808;2024-03-23T12:35:18;4.30;;;1.83;;
62584;SDS011;48643;51.670;5.808;2024-03-23T12:37:44;6.55;;;1.92;;
62584;SDS011;48643;51.670;5.808;2024-03-23T12:40:10;6.63;;;2.03;;
62584;SDS011;48643;51.670;5.808;2024-03-23T12:42:36;8.30;;;2.20;;
62584;SDS011;48643;51.670;5.808;2024-03-23T12:45:02;8.40;;;2.15;;
62584;SDS011;48643;51.670;5.808;2024-03-23T12:47:32;5.80;;;2.00;;
62584;SDS011;48643;51.670;5.808;2024-03-23T12:49:58;7.97;;;1.92;;
62584;SDS011;48643;51.670;5.808;2024-03-23T12:52:24;8.57;;;1.95;;
62584;SDS011;48643;51.670;5.808;2024-03-23T12:54:56;7.32;;;2.08;;
62584;SDS011;48643;51.670;5.808;2024-03-23T12:59:49;6.63;;;1.90;;
62584;SDS011;48643;51.670;5.808;2024-03-23T13:02:17;7.45;;;1.90;;
62584;SDS011;48643;51.670;5.808;2024-03-23T13:04:54;5.57;;;1.95;;
62584;SDS011;48643;51.670;5.808;2024-03-23T13:07:21;6.35;;;2.00;;
62584;SDS011;48643;51.670;5.808;2024-03-23T13:09:49;6.10;;;1.98;;
62584;SDS011;48643;51.670;5.808;2024-03-23T13:12:16;5.82;;;2.08;;
62584;SDS011;48643;51.670;5.808;2024-03-23T13:14:44;5.82;;;1.73;;
62584;SDS011;48643;51.670;5.808;2024-03-23T13:17:10;5.97;;;1.90;;
62584;SDS011;48643;51.670;5.808;2024-03-23T13:19:36;5.88;;;2.05;;
62584;SDS011;48643;51.670;5.808;2024-03-23T13:22:03;7.65;;;1.95;;
62584;SDS011;48643;51.670;5.808;2024-03-23T13:24:29;5.95;;;1.92;;
62584;SDS011;48643;51.670;5.808;2024-03-23T13:26:55;12.40;;;2.35;;
62584;SDS011;48643;51.670;5.808;2024-03-23T13:29:22;9.40;;;2.28;;
62584;SDS011;48643;51.670;5.808;2024-03-23T13:31:49;6.13;;;1.80;;
62584;SDS011;48643;51.670;5.808;2024-03-23T13:34:16;5.25;;;1.77;;
62584;SDS011;48643;51.670;5.808;2024-03-23T13:36:42;7.80;;;1.77;;
62584;SDS011;48643;51.670;5.808;2024-03-23T13:39:09;5.95;;;1.65;;
62584;SDS011;48643;51.670;5.808;2024-03-23T13:41:41;8.50;;;1.98;;
62584;SDS011;48643;51.670;5.808;2024-03-23T13:44:08;11.23;;;2.20;;
62584;SDS011;48643;51.670;5.808;2024-03-23T13:46:38;9.77;;;1.90;;
62584;SDS011;48643;51.670;5.808;2024-03-23T13:49:07;9.32;;;2.10;;
62584;SDS011;48643;51.670;5.808;2024-03-23T13:51:39;11.18;;;2.05;;
62584;SDS011;48643;51.670;5.808;2024-03-23T13:54:05;7.38;;;1.92;;
62584;SDS011;48643;51.670;5.808;2024-03-23T13:56:30;11.70;;;1.98;;
62584;SDS011;48643;51.670;5.808;2024-03-23T13:58:56;11.68;;;2.33;;
62584;SDS011;48643;51.670;5.808;2024-03-23T14:01:23;10.32;;;2.00;;
62584;SDS011;48643;51.670;5.808;2024-03-23T14:03:49;9.10;;;2.35;;
62584;SDS011;48643;51.670;5.808;2024-03-23T14:06:15;8.90;;;2.22;;
62584;SDS011;48643;51.670;5.808;2024-03-23T14:08:41;6.47;;;2.00;;
62584;SDS011;48643;51.670;5.808;2024-03-23T14:11:08;10.02;;;2.25;;
62584;SDS011;48643;51.670;5.808;2024-03-23T14:13:35;8.50;;;2.10;;
62584;SDS011;48643;51.670;5.808;2024-03-23T14:16:01;9.00;;;1.92;;
62584;SDS011;48643;51.670;5.808;2024-03-23T14:18:28;12.40;;;2.20;;
62584;SDS011;48643;51.670;5.808;2024-03-23T14:20:57;8.57;;;1.98;;
62584;SDS011;48643;51.670;5.808;2024-03-23T14:23:25;9.68;;;2.20;;
62584;SDS011;48643;51.670;5.808;2024-03-23T14:25:55;8.38;;;1.85;;
62584;SDS011;48643;51.670;5.808;2024-03-23T14:28:21;9.23;;;2.08;;
62584;SDS011;48643;51.670;5.808;2024-03-23T14:30:51;7.97;;;2.17;;
62584;SDS011;48643;51.670;5.808;2024-03-23T14:33:18;9.55;;;2.22;;
62584;SDS011;48643;51.670;5.808;2024-03-23T14:35:51;9.23;;;2.20;;
62584;SDS011;48643;51.670;5.808;2024-03-23T14:38:18;5.85;;;2.00;;
62584;SDS011;48643;51.670;5.808;2024-03-23T14:40:45;11.10;;;2.17;;
62584;SDS011;48643;51.670;5.808;2024-03-23T14:43:11;8.98;;;2.22;;
62584;SDS011;48643;51.670;5.808;2024-03-23T14:45:37;7.57;;;2.08;;
62584;SDS011;48643;51.670;5.808;2024-03-23T14:48:03;9.77;;;2.25;;
62584;SDS011;48643;51.670;5.808;2024-03-23T14:50:33;8.25;;;2.00;;
62584;SDS011;48643;51.670;5.808;2024-03-23T14:53:00;6.07;;;1.80;;
62584;SDS011;48643;51.670;5.808;2024-03-23T14:55:26;5.85;;;2.00;;
62584;SDS011;48643;51.670;5.808;2024-03-23T14:57:51;10.40;;;2.55;;
62584;SDS011;48643;51.670;5.808;2024-03-23T15:00:17;6.93;;;1.90;;
62584;SDS011;48643;51.670;5.808;2024-03-23T15:02:43;8.68;;;2.17;;
62584;SDS011;48643;51.670;5.808;2024-03-23T15:05:10;7.18;;;2.25;;
62584;SDS011;48643;51.670;5.808;2024-03-23T15:07:36;6.47;;;2.00;;
62584;SDS011;48643;51.670;5.808;2024-03-23T15:10:05;12.13;;;2.17;;
62584;SDS011;48643;51.670;5.808;2024-03-23T15:12:33;16.60;;;2.15;;
62584;SDS011;48643;51.670;5.808;2024-03-23T15:14:59;9.50;;;2.42;;
62584;SDS011;48643;51.670;5.808;2024-03-23T15:17:26;6.72;;;2.17;;
62584;SDS011;48643;51.670;5.808;2024-03-23T15:19:51;6.68;;;1.85;;
62584;SDS011;48643;51.670;5.808;2024-03-23T15:22:19;7.72;;;1.90;;
62584;SDS011;48643;51.670;5.808;2024-03-23T15:24:46;7.43;;;2.28;;
62584;SDS011;48643;51.670;5.808;2024-03-23T15:27:12;9.10;;;2.03;;
62584;SDS011;48643;51.670;5.808;2024-03-23T15:29:38;10.45;;;2.10;;
62584;SDS011;48643;51.670;5.808;2024-03-23T15:32:05;7.72;;;2.00;;
62584;SDS011;48643;51.670;5.808;2024-03-23T15:34:31;4.68;;;1.70;;
62584;SDS011;48643;51.670;5.808;2024-03-23T15:36:57;5.50;;;1.60;;
62584;SDS011;48643;51.670;5.808;2024-03-23T15:39:22;5.68;;;1.60;;
62584;SDS011;48643;51.670;5.808;2024-03-23T15:41:48;4.22;;;1.20;;
62584;SDS011;48643;51.670;5.808;2024-03-23T15:44:14;5.00;;;1.73;;
62584;SDS011;48643;51.670;5.808;2024-03-23T15:46:40;6.35;;;1.60;;
62584;SDS011;48643;51.670;5.808;2024-03-23T15:49:06;4.22;;;1.55;;
62584;SDS011;48643;51.670;5.808;2024-03-23T15:51:32;6.20;;;1.55;;
62584;SDS011;48643;51.670;5.808;2024-03-23T15:54:00;4.43;;;1.17;;